createdAt,value
2023-12-05T00:02:18.002Z,100454.92
2023-12-05T00:06:21.405Z,100447.28
2023-12-05T00:10:24.744Z,100441.72
2023-12-05T00:14:28.112Z,100444.09
2023-12-05T00:18:31.512Z,100439.33
2023-12-05T00:22:34.887Z,100437.19
2023-12-05T00:26:38.296Z,100429.05
2023-12-05T00:30:42.017Z,100422.29
2023-12-05T00:34:49.445Z,100423.65
2023-12-05T00:38:52.938Z,100422.77
2023-12-05T00:42:58.735Z,100423.25
2023-12-05T00:47:04.845Z,100420.48
2023-12-05T00:51:08.658Z,100418.43
2023-12-05T00:55:12.057Z,100418.08
2023-12-05T00:59:15.425Z,100424.25
2023-12-05T01:03:20.846Z,100422.60
2023-12-05T01:07:24.645Z,100413.63
2023-12-05T01:11:28.016Z,100408.15
2023-12-05T01:15:31.342Z,100407.88
2023-12-05T01:19:36.610Z,100403.06
2023-12-05T01:23:39.906Z,100396.23
2023-12-05T01:27:43.291Z,100387.13
2023-12-05T01:31:46.628Z,100384.71
2023-12-05T01:35:51.420Z,100375.88
2023-12-05T01:39:54.913Z,100361.66
2023-12-05T01:43:58.770Z,100362.36
2023-12-05T01:48:03.628Z,100351.02
2023-12-05T01:52:07.087Z,100347.57
2023-12-05T01:56:12.752Z,100351.56
2023-12-05T02:00:17.627Z,100348.76
2023-12-05T02:04:22.658Z,100341.43
2023-12-05T02:08:29.439Z,100344.13
2023-12-05T02:12:32.825Z,100347.61
2023-12-05T02:16:46.885Z,100343.70
2023-12-05T02:21:01.412Z,100341.61
2023-12-05T02:25:22.230Z,100337.90
2023-12-05T02:29:25.937Z,100337.27
2023-12-05T02:33:29.541Z,100334.14
2023-12-05T02:37:44.839Z,100329.36
2023-12-05T02:41:54.574Z,100327.95
2023-12-05T02:46:08.827Z,100328.20
2023-12-05T02:50:13.815Z,100323.88
2023-12-05T02:54:17.341Z,100328.31
2023-12-05T02:58:20.723Z,100321.98
2023-12-05T03:02:24.141Z,100320.75
2023-12-05T03:06:28.821Z,100321.44
2023-12-05T03:10:33.241Z,100318.20
2023-12-05T03:14:36.539Z,100316.04
2023-12-05T03:18:40.230Z,100320.93
2023-12-05T03:22:44.201Z,100319.05
2023-12-05T03:26:48.020Z,100315.56
2023-12-05T03:30:51.436Z,100313.85
2023-12-05T03:34:54.864Z,100309.52
2023-12-05T03:38:58.841Z,100306.07
2023-12-05T03:43:02.234Z,100300.27
2023-12-05T03:47:05.660Z,100299.39
2023-12-05T03:51:08.989Z,100296.33
2023-12-05T03:55:12.456Z,100292.66
2023-12-05T03:59:15.746Z,100291.64
2023-12-05T04:03:20.725Z,100290.95
2023-12-05T04:07:24.300Z,100284.55
2023-12-05T04:11:35.263Z,100281.06
2023-12-05T04:15:40.604Z,100279.06
2023-12-05T04:19:44.138Z,100274.77
2023-12-05T04:23:48.084Z,100275.86
2023-12-05T04:27:51.556Z,100269.85
2023-12-05T04:31:54.977Z,100266.70
2023-12-05T04:35:59.090Z,100262.84
2023-12-05T04:40:05.379Z,100262.40
2023-12-05T04:44:09.253Z,100256.17
2023-12-05T04:48:12.726Z,100257.66
2023-12-05T04:52:16.633Z,100255.77
2023-12-05T04:56:20.035Z,100258.42
2023-12-05T05:00:23.384Z,100254.54
2023-12-05T05:04:26.915Z,100255.02
2023-12-05T05:08:30.311Z,100249.16
2023-12-05T05:12:33.702Z,100253.84
2023-12-05T05:16:37.066Z,100255.73
2023-12-05T05:20:40.528Z,100253.97
2023-12-05T05:24:44.012Z,100246.70
2023-12-05T05:28:47.504Z,100244.19
2023-12-05T05:32:50.900Z,100246.85
2023-12-05T05:36:54.329Z,100245.89
2023-12-05T05:41:08.913Z,100247.55
2023-12-05T05:45:13.326Z,100244.95
2023-12-05T05:49:16.758Z,100239.31
2023-12-05T05:53:20.178Z,100236.23
2023-12-05T05:57:23.630Z,100233.69
2023-12-05T06:01:26.973Z,100225.05
2023-12-05T06:05:30.745Z,100222.80
2023-12-05T06:09:34.854Z,100219.52
2023-12-05T06:13:38.207Z,100221.95
2023-12-05T06:17:41.856Z,100220.42
2023-12-05T06:21:45.384Z,100221.16
2023-12-05T06:25:48.797Z,100222.70
2023-12-05T06:29:52.157Z,100220.01
2023-12-05T06:33:55.606Z,100216.98
2023-12-05T06:37:58.892Z,100218.36
2023-12-05T06:42:02.166Z,100219.71
2023-12-05T06:46:06.098Z,100222.40
2023-12-05T06:50:12.918Z,100220.19
2023-12-05T06:54:16.689Z,100220.52
2023-12-05T06:58:19.998Z,100219.98
2023-12-05T07:02:23.345Z,100220.90
2023-12-05T07:06:26.932Z,100215.71
2023-12-05T07:10:30.454Z,100220.48
2023-12-05T07:14:37.178Z,100223.27
2023-12-05T07:18:41.802Z,100212.73
2023-12-05T07:22:45.711Z,100210.73
2023-12-05T07:26:49.929Z,100215.55
2023-12-05T07:30:55.171Z,100214.38
2023-12-05T07:34:59.278Z,100212.81
2023-12-05T07:39:05.162Z,100217.27
2023-12-05T07:43:08.819Z,100208.98
2023-12-05T07:47:13.460Z,100204.30
2023-12-05T07:51:19.493Z,100207.08
2023-12-05T07:55:23.871Z,100210.05
2023-12-05T07:59:27.222Z,100207.33
2023-12-05T08:03:31.665Z,100210.79
2023-12-05T08:07:35.173Z,100211.19
2023-12-05T08:11:39.608Z,100205.87
2023-12-05T08:15:43.257Z,100209.08
2023-12-05T08:19:46.703Z,100204.99
2023-12-05T08:23:50.063Z,100201.64
2023-12-05T08:27:53.461Z,100196.12
2023-12-05T08:31:57.146Z,100192.31
2023-12-05T08:36:00.453Z,100194.45
2023-12-05T08:40:04.220Z,100195.58
2023-12-05T08:44:07.700Z,100197.39
2023-12-05T08:48:11.691Z,100200.77
2023-12-05T08:52:15.320Z,100206.71
2023-12-05T08:56:19.051Z,100202.64
2023-12-05T09:00:22.726Z,100199.36
2023-12-05T09:04:26.258Z,100193.01
2023-12-05T09:08:30.655Z,100194.45
2023-12-05T09:12:34.223Z,100187.14
2023-12-05T09:16:37.623Z,100184.00
2023-12-05T09:20:42.068Z,100184.45
2023-12-05T09:24:45.646Z,100174.86
2023-12-05T09:28:49.056Z,100169.36
2023-12-05T09:32:54.132Z,100166.02
2023-12-05T09:36:58.019Z,100161.84
2023-12-05T09:41:04.053Z,100153.63
2023-12-05T09:45:15.256Z,100152.20
2023-12-05T09:49:23.669Z,100151.88
2023-12-05T09:53:29.407Z,100149.74
2023-12-05T09:57:33.519Z,100150.60
2023-12-05T10:01:37.710Z,100155.77
2023-12-05T10:05:43.874Z,100151.09
2023-12-05T10:09:48.874Z,100149.03
2023-12-05T10:13:52.325Z,100152.22
2023-12-05T10:17:56.253Z,100156.00
2023-12-05T10:22:01.168Z,100159.06
2023-12-05T10:26:04.709Z,100153.88
2023-12-05T10:30:08.516Z,100149.14
2023-12-05T10:34:11.926Z,100149.86
2023-12-05T10:38:20.796Z,100146.55
2023-12-05T10:42:27.947Z,100150.23
2023-12-05T10:46:37.990Z,100147.84
2023-12-05T10:50:42.465Z,100143.73
2023-12-05T10:54:45.932Z,100140.45
2023-12-05T10:58:50.454Z,100139.81
2023-12-05T11:02:55.261Z,100133.77
2023-12-05T11:06:58.682Z,100126.08
2023-12-05T11:11:06.528Z,100119.15
2023-12-05T11:15:11.232Z,100123.27
2023-12-05T11:19:56.333Z,100127.67
2023-12-05T11:24:26.589Z,100124.39
2023-12-05T11:28:51.980Z,100122.23
2023-12-05T11:33:19.640Z,100119.74
2023-12-05T11:37:53.903Z,100120.74
2023-12-05T11:42:11.851Z,100112.42
2023-12-05T11:46:17.883Z,100107.66
2023-12-05T11:50:21.824Z,100104.15
2023-12-05T11:54:33.304Z,100100.97
2023-12-05T11:58:36.759Z,100101.89
2023-12-05T12:02:48.986Z,100098.91
2023-12-05T12:06:52.438Z,100103.60
2023-12-05T12:10:57.443Z,100094.77
2023-12-05T12:15:00.977Z,100092.74
2023-12-05T12:19:05.282Z,100088.30
2023-12-05T12:23:08.986Z,100088.56
2023-12-05T12:27:12.903Z,100087.25
2023-12-05T12:31:27.643Z,100083.89
2023-12-05T12:35:32.578Z,100082.00
2023-12-05T12:39:37.584Z,100080.48
2023-12-05T12:43:44.164Z,100077.50
2023-12-05T12:47:47.683Z,100081.41
2023-12-05T12:51:51.277Z,100092.55
2023-12-05T12:55:54.974Z,100087.13
2023-12-05T13:00:29.864Z,100085.71
2023-12-05T13:04:21.903Z,100086.59
2023-12-05T13:08:25.525Z,100085.62
2023-12-05T13:12:29.062Z,100082.35
2023-12-05T13:16:32.393Z,100083.23
2023-12-05T13:20:50.791Z,100082.59
2023-12-05T13:24:54.180Z,100083.52
2023-12-05T13:28:57.711Z,100086.23
2023-12-05T13:33:01.129Z,100081.91
2023-12-05T13:37:04.667Z,100079.61
2023-12-05T13:41:08.046Z,100080.36
2023-12-05T13:45:13.022Z,100082.61
2023-12-05T13:49:18.591Z,100083.70
2023-12-05T13:53:24.819Z,100085.71
2023-12-05T13:57:28.508Z,100083.59
2023-12-05T14:01:31.884Z,100082.61
2023-12-05T14:05:35.346Z,100084.45
2023-12-05T14:09:38.861Z,100091.60
2023-12-05T14:13:42.233Z,100084.46
2023-12-05T14:17:45.529Z,100087.08
2023-12-05T14:21:50.025Z,100086.14
2023-12-05T14:25:53.492Z,100092.43
2023-12-05T14:29:56.930Z,100097.48
2023-12-05T14:34:00.332Z,100096.12
2023-12-05T14:38:03.710Z,100095.34
2023-12-05T14:42:07.083Z,100098.92
2023-12-05T14:46:10.479Z,100101.48
2023-12-05T14:50:14.856Z,100103.48
2023-12-05T14:54:18.165Z,100107.13
2023-12-05T14:58:22.278Z,100109.13
2023-12-05T15:02:25.783Z,100115.45
2023-12-05T15:06:29.273Z,100118.98
2023-12-05T15:10:32.599Z,100115.05
2023-12-05T15:14:36.819Z,100112.54
2023-12-05T15:18:40.248Z,100108.84
2023-12-05T15:22:44.096Z,100109.80
2023-12-05T15:26:48.637Z,100112.45
2023-12-05T15:30:52.803Z,100108.89
2023-12-05T15:34:56.137Z,100110.12
2023-12-05T15:38:59.536Z,100111.52
2023-12-05T15:43:03.042Z,100110.80
2023-12-05T15:47:08.624Z,100113.73
2023-12-05T15:51:12.036Z,100123.40
2023-12-05T15:55:15.858Z,100127.42
2023-12-05T15:59:21.006Z,100126.60
2023-12-05T16:03:24.475Z,100128.28
2023-12-05T16:07:28.293Z,100125.75
2023-12-05T16:11:32.130Z,100128.23
2023-12-05T16:15:35.421Z,100129.51
2023-12-05T16:19:39.886Z,100133.23
2023-12-05T16:23:43.553Z,100129.44
2023-12-05T16:27:46.858Z,100124.92
2023-12-05T16:31:50.145Z,100125.76
2023-12-05T16:35:53.486Z,100130.36
2023-12-05T16:39:57.404Z,100126.97
2023-12-05T16:44:00.923Z,100122.88
2023-12-05T16:48:04.560Z,100128.60
2023-12-05T16:52:08.386Z,100128.36
2023-12-05T16:56:12.574Z,100128.38
2023-12-05T17:00:16.217Z,100133.77
2023-12-05T17:04:19.738Z,100134.56
2023-12-05T17:08:23.288Z,100135.60
2023-12-05T17:12:26.657Z,100139.54
2023-12-05T17:16:30.013Z,100137.35
2023-12-05T17:20:33.846Z,100138.60
2023-12-05T17:24:37.372Z,100138.90
2023-12-05T17:28:40.756Z,100136.81
2023-12-05T17:32:44.512Z,100141.93
2023-12-05T17:36:47.942Z,100140.51
2023-12-05T17:40:51.805Z,100137.52
2023-12-05T17:44:55.487Z,100136.61
2023-12-05T17:49:02.345Z,100137.65
2023-12-05T17:53:05.867Z,100136.95
2023-12-05T17:57:11.855Z,100135.06
2023-12-05T18:01:15.242Z,100132.86
2023-12-05T18:05:18.947Z,100137.84
2023-12-05T18:09:25.019Z,100139.25
2023-12-05T18:13:29.885Z,100141.05
2023-12-05T18:17:33.456Z,100142.98
2023-12-05T18:21:36.931Z,100141.00
2023-12-05T18:25:41.280Z,100138.24
2023-12-05T18:29:45.795Z,100141.10
2023-12-05T18:33:51.072Z,100137.70
2023-12-05T18:37:54.581Z,100137.11
2023-12-05T18:41:59.190Z,100137.67
2023-12-05T18:46:04.657Z,100134.02
2023-12-05T18:50:08.646Z,100134.83
2023-12-05T18:54:12.092Z,100135.90
2023-12-05T18:58:15.499Z,100139.60
2023-12-05T19:02:18.899Z,100147.15
2023-12-05T19:06:22.699Z,100146.97
2023-12-05T19:10:26.213Z,100149.94
2023-12-05T19:14:30.214Z,100146.20
2023-12-05T19:18:34.235Z,100145.85
2023-12-05T19:22:37.835Z,100148.56
2023-12-05T19:26:41.384Z,100151.52
2023-12-05T19:30:48.330Z,100155.73
2023-12-05T19:34:52.418Z,100156.76
2023-12-05T19:38:55.840Z,100152.69
2023-12-05T19:43:00.256Z,100151.29
2023-12-05T19:47:03.708Z,100155.12
2023-12-05T19:51:07.167Z,100162.21
2023-12-05T19:55:10.621Z,100159.86
2023-12-05T19:59:15.198Z,100159.33
2023-12-05T20:03:20.185Z,100159.08
2023-12-05T20:07:23.867Z,100160.22
2023-12-05T20:11:27.159Z,100161.57
2023-12-05T20:15:32.053Z,100165.59
2023-12-05T20:19:35.610Z,100172.95
2023-12-05T20:23:38.973Z,100178.65
2023-12-05T20:27:43.822Z,100175.88
2023-12-05T20:31:47.132Z,100175.98
2023-12-05T20:35:50.552Z,100177.80
2023-12-05T20:39:53.924Z,100171.87
2023-12-05T20:43:57.311Z,100171.23
2023-12-05T20:48:04.562Z,100175.31
2023-12-05T20:52:08.111Z,100174.02
2023-12-05T20:56:11.507Z,100180.50
2023-12-05T21:00:15.056Z,100182.71
2023-12-05T21:04:19.496Z,100175.40
2023-12-05T21:08:23.058Z,100173.30
2023-12-05T21:12:26.341Z,100178.21
2023-12-05T21:16:29.633Z,100178.87
2023-12-05T21:20:33.141Z,100175.22
2023-12-05T21:24:37.591Z,100175.60
2023-12-05T21:28:41.669Z,100175.78
2023-12-05T21:32:44.983Z,100183.36
2023-12-05T21:36:49.260Z,100193.22
2023-12-05T21:40:52.772Z,100196.26
2023-12-05T21:44:56.097Z,100194.55
2023-12-05T21:49:02.665Z,100195.88
2023-12-05T21:53:06.143Z,100198.98
2023-12-05T21:57:09.568Z,100198.86
2023-12-05T22:01:14.733Z,100204.25
2023-12-05T22:05:19.848Z,100204.47
2023-12-05T22:09:23.243Z,100210.42
2023-12-05T22:13:30.914Z,100208.98
2023-12-05T22:17:35.234Z,100206.25
2023-12-05T22:21:43.039Z,100210.31
2023-12-05T22:25:50.001Z,100209.65
2023-12-05T22:29:55.984Z,100205.18
2023-12-05T22:34:00.117Z,100204.41
2023-12-05T22:38:03.482Z,100205.82
2023-12-05T22:42:06.866Z,100201.93
2023-12-05T22:46:11.690Z,100205.70
2023-12-05T22:50:15.343Z,100206.04
2023-12-05T22:54:18.924Z,100205.09
2023-12-05T22:58:22.214Z,100200.95
2023-12-05T23:02:25.608Z,100191.20
2023-12-05T23:06:28.932Z,100193.55
2023-12-05T23:10:34.288Z,100193.06
2023-12-05T23:14:37.863Z,100195.38
2023-12-05T23:18:41.139Z,100189.84
2023-12-05T23:22:45.195Z,100186.55
2023-12-05T23:26:48.436Z,100187.32
2023-12-05T23:30:51.826Z,100186.14
2023-12-05T23:34:55.409Z,100182.88
2023-12-05T23:38:58.742Z,100181.13
2023-12-05T23:43:02.180Z,100184.15
2023-12-05T23:47:05.737Z,100183.11
2023-12-05T23:51:09.068Z,100180.98
2023-12-05T23:55:12.832Z,100182.07
2023-12-05T23:59:16.257Z,100185.77
